Time;durP1;ratioP1;P1;durP2;ratioP2;P2;SDS_P1;SDS_P2;PMS_P1;PMS_P2;Temp;Humidity;BMP_temperature;BMP_pressure;BME280_temperature;BME280_humidity;BME280_pressure;Samples;Min_cycle;Max_cycle;Signal;HPM_P1;HPM_P2
2022/04/30 00:01:19;;;;;;;1.55;1.45;;;8.70;99.90;;;;;;5009497;28;20065;-67
2022/04/30 00:03:45;;;;;;;0.10;0.10;;;8.70;99.90;;;;;;5026646;28;20041;-68
2022/04/30 00:06:11;;;;;;;0.43;0.43;;;8.80;99.90;;;;;;5024085;28;20088;-67
2022/04/30 00:08:37;;;;;;;0.10;0.10;;;8.70;99.90;;;;;;5012767;28;20424;-67
2022/04/30 00:11:03;;;;;;;0.38;0.38;;;8.70;99.90;;;;;;5027374;28;20532;-67
2022/04/30 00:13:30;;;;;;;0.10;0.10;;;8.70;99.90;;;;;;5027079;28;20045;-68
2022/04/30 00:15:56;;;;;;;1.75;0.73;;;8.70;99.90;;;;;;5018149;28;20455;-68
2022/04/30 00:18:21;;;;;;;0.10;0.10;;;8.80;99.90;;;;;;5016626;28;20046;-68
2022/04/30 00:20:47;;;;;;;0.22;0.22;;;8.80;99.90;;;;;;5026669;28;20561;-67
2022/04/30 00:23:20;;;;;;;0.20;0.20;;;8.90;99.90;;;;;;5022341;28;20125;-68
2022/04/30 00:25:49;;;;;;;0.17;0.17;;;8.90;99.90;;;;;;5027024;28;20502;-68
2022/04/30 00:28:17;;;;;;;0.10;0.10;;;8.90;99.90;;;;;;5024913;28;20053;-67
2022/04/30 00:30:44;;;;;;;0.15;0.15;;;9.00;99.90;;;;;;5025454;28;20073;-67
2022/04/30 00:33:10;;;;;;;0.10;0.10;;;9.00;99.90;;;;;;5021569;28;20120;-67
2022/04/30 00:35:40;;;;;;;1.25;1.23;;;9.00;99.90;;;;;;5006895;28;20046;-66
2022/04/30 00:38:06;;;;;;;0.10;0.10;;;9.00;99.90;;;;;;5024907;28;20077;-66
2022/04/30 00:40:32;;;;;;;0.10;0.10;;;9.00;99.90;;;;;;5027343;28;20041;-66
2022/04/30 00:42:58;;;;;;;0.38;0.38;;;9.10;99.90;;;;;;5010605;28;20045;-65
2022/04/30 00:45:24;;;;;;;0.10;0.10;;;9.10;99.90;;;;;;5023248;28;20057;-66
2022/04/30 00:47:50;;;;;;;0.00;0.00;;;9.20;99.90;;;;;;5022885;28;20041;-66
2022/04/30 00:50:16;;;;;;;0.00;0.00;;;9.20;99.90;;;;;;5021830;28;20038;-66
2022/04/30 00:52:47;;;;;;;0.10;0.10;;;9.20;99.90;;;;;;5014286;28;20096;-66
2022/04/30 00:55:13;;;;;;;0.50;0.50;;;9.30;99.90;;;;;;5024911;28;20546;-66
2022/04/30 00:57:42;;;;;;;0.00;0.00;;;9.30;99.90;;;;;;5017015;28;20045;-66
2022/04/30 01:00:09;;;;;;;0.00;0.00;;;9.30;99.90;;;;;;5015968;28;20045;-66
2022/04/30 01:02:34;;;;;;;0.00;0.00;;;9.30;99.90;;;;;;5018941;28;20505;-66
2022/04/30 01:05:00;;;;;;;0.20;0.20;;;9.40;99.90;;;;;;5020372;28;20136;-66
2022/04/30 01:07:30;;;;;;;0.00;0.00;;;9.40;99.90;;;;;;5016644;28;20038;-66
2022/04/30 01:09:56;;;;;;;0.10;0.10;;;9.40;99.90;;;;;;5017179;28;20046;-66
2022/04/30 01:12:23;;;;;;;0.30;0.30;;;9.40;99.90;;;;;;5025621;28;20098;-66
2022/04/30 01:14:52;;;;;;;0.10;0.10;;;9.40;99.90;;;;;;5017621;28;20061;-66
2022/04/30 01:17:18;;;;;;;0.10;0.10;;;9.50;99.90;;;;;;5023678;28;20052;-66
2022/04/30 01:19:45;;;;;;;0.00;0.00;;;9.50;99.90;;;;;;5025303;28;20445;-66
2022/04/30 01:22:27;;;;;;;0.10;0.10;;;9.50;99.90;;;;;;5016716;28;20037;-67
2022/04/30 01:25:00;;;;;;;2.20;0.85;;;9.50;99.90;;;;;;5024154;28;20045;-67
2022/04/30 01:27:27;;;;;;;0.10;0.10;;;9.50;99.90;;;;;;5030250;28;20452;-68
2022/04/30 01:29:54;;;;;;;0.10;0.10;;;9.50;99.90;;;;;;5018526;28;20494;-67
2022/04/30 01:37:58;;;;;;;0.10;0.10;;;9.50;99.90;;;;;;5010803;28;20054;-67
2022/04/30 01:40:24;;;;;;;0.10;0.10;;;9.50;99.90;;;;;;5021882;28;20041;-68
2022/04/30 01:42:49;;;;;;;0.10;0.10;;;9.60;99.90;;;;;;5020840;28;20053;-67
2022/04/30 01:45:18;;;;;;;0.00;0.00;;;9.60;99.90;;;;;;5022879;28;20045;-67
2022/04/30 01:47:46;;;;;;;0.00;0.00;;;9.60;99.90;;;;;;5019884;28;20221;-67
2022/04/30 01:50:13;;;;;;;0.22;0.22;;;9.60;99.90;;;;;;5017748;28;20044;-67
2022/04/30 01:52:39;;;;;;;0.20;0.20;;;9.60;99.90;;;;;;5028417;28;20499;-67
2022/04/30 01:55:05;;;;;;;0.00;0.00;;;9.60;99.90;;;;;;5028685;28;20080;-67
2022/04/30 01:57:31;;;;;;;0.10;0.10;;;9.60;99.90;;;;;;5010991;28;20057;-67
2022/04/30 02:00:00;;;;;;;0.10;0.10;;;9.50;99.90;;;;;;5010023;28;20041;-67
2022/04/30 02:02:34;;;;;;;0.17;0.17;;;9.50;99.90;;;;;;5009456;28;20042;-67
2022/04/30 02:05:03;;;;;;;0.10;0.10;;;9.60;99.90;;;;;;5022056;28;20049;-67
2022/04/30 02:07:33;;;;;;;0.10;0.10;;;9.50;99.90;;;;;;5028509;28;20556;-67
2022/04/30 02:09:59;;;;;;;0.03;0.03;;;9.50;99.90;;;;;;5016898;28;20037;-67
2022/04/30 02:12:33;;;;;;;0.10;0.10;;;9.50;99.90;;;;;;5017167;28;20064;-68
2022/04/30 02:15:00;;;;;;;0.10;0.10;;;9.50;99.90;;;;;;5028347;28;20424;-68
2022/04/30 02:17:28;;;;;;;0.10;0.10;;;9.50;99.90;;;;;;5025296;28;20142;-67
2022/04/30 02:22:40;;;;;;;0.10;0.10;;;9.60;99.90;;;;;;5021355;28;20050;-67
2022/04/30 02:25:12;;;;;;;0.00;0.00;;;9.50;99.90;;;;;;5013799;28;20042;-67
2022/04/30 02:27:40;;;;;;;0.30;0.30;;;9.50;99.90;;;;;;5008866;28;20104;-67
2022/04/30 02:30:07;;;;;;;0.17;0.17;;;9.50;99.90;;;;;;5009742;28;20042;-67
2022/04/30 02:32:45;;;;;;;0.10;0.10;;;9.50;99.90;;;;;;5008750;28;20050;-67
2022/04/30 02:35:14;;;;;;;0.10;0.10;;;9.50;99.90;;;;;;5025984;28;20535;-67
2022/04/30 02:37:40;;;;;;;0.20;0.20;;;9.50;99.90;;;;;;5025056;28;20038;-67
2022/04/30 02:40:06;;;;;;;0.10;0.10;;;9.50;99.90;;;;;;5021085;28;20129;-67
2022/04/30 02:42:32;;;;;;;0.30;0.30;;;9.50;99.90;;;;;;5028481;28;20124;-67
2022/04/30 02:44:57;;;;;;;4.20;1.48;;;9.50;99.90;;;;;;5030083;28;20076;-67
2022/04/30 02:47:23;;;;;;;0.10;0.10;;;9.50;99.90;;;;;;5017302;28;20370;-67
2022/04/30 02:49:49;;;;;;;0.10;0.10;;;9.50;99.90;;;;;;5023381;28;20045;-67
2022/04/30 02:52:14;;;;;;;0.10;0.10;;;9.50;99.90;;;;;;5028590;28;20136;-67
2022/04/30 02:54:40;;;;;;;0.00;0.00;;;9.40;99.90;;;;;;5019413;28;20050;-67
2022/04/30 02:57:06;;;;;;;0.00;0.00;;;9.40;99.90;;;;;;5009294;28;20481;-67
2022/04/30 03:02:16;;;;;;;0.10;0.10;;;9.40;99.90;;;;;;5009177;28;20048;-67
2022/04/30 03:04:41;;;;;;;0.00;0.00;;;9.40;99.90;;;;;;5009581;28;20136;-67
2022/04/30 03:07:11;;;;;;;0.57;0.57;;;9.40;99.90;;;;;;5015996;28;20042;-68
2022/04/30 03:09:39;;;;;;;0.10;0.10;;;9.40;99.90;;;;;;5008701;28;20053;-67
2022/04/30 03:12:07;;;;;;;0.75;0.50;;;9.40;99.90;;;;;;5010045;28;20409;-67
2022/04/30 03:14:34;;;;;;;0.22;0.22;;;9.40;99.90;;;;;;5013307;28;20129;-67
2022/04/30 03:22:28;;;;;;;0.85;0.47;;;9.20;99.90;;;;;;5026311;28;20148;-67
2022/04/30 03:24:54;;;;;;;0.10;0.10;;;9.20;99.90;;;;;;5024661;28;20116;-67
2022/04/30 03:27:19;;;;;;;0.10;0.10;;;9.20;99.90;;;;;;5019780;28;20057;-67
2022/04/30 03:29:46;;;;;;;0.28;0.22;;;9.10;99.90;;;;;;5010021;28;20046;-68
2022/04/30 03:32:12;;;;;;;0.10;0.10;;;9.10;99.90;;;;;;5009157;28;20104;-67
2022/04/30 03:34:38;;;;;;;0.10;0.10;;;9.10;99.90;;;;;;5027110;28;20045;-67
2022/04/30 03:37:04;;;;;;;0.10;0.10;;;9.10;99.90;;;;;;5018332;28;20041;-67
2022/04/30 03:39:30;;;;;;;0.10;0.10;;;9.10;99.90;;;;;;5006737;28;20133;-67
2022/04/30 03:41:55;;;;;;;0.10;0.10;;;9.10;99.90;;;;;;5009309;28;20125;-67
2022/04/30 03:44:21;;;;;;;0.05;0.05;;;9.00;99.90;;;;;;5008408;28;20049;-67
2022/04/30 03:46:47;;;;;;;0.55;0.30;;;9.00;99.90;;;;;;5011760;28;20153;-67
2022/04/30 03:49:13;;;;;;;0.00;0.00;;;9.00;99.90;;;;;;5027960;28;20079;-67
2022/04/30 03:51:38;;;;;;;0.00;0.00;;;9.00;99.90;;;;;;5027085;28;20041;-67
2022/04/30 03:54:04;;;;;;;0.10;0.10;;;9.00;99.90;;;;;;5010023;28;20390;-68
2022/04/30 03:56:31;;;;;;;1.10;0.95;;;9.10;99.90;;;;;;5026494;28;20049;-68
2022/04/30 03:58:56;;;;;;;0.10;0.10;;;9.10;99.90;;;;;;5028295;28;20464;-67
2022/04/30 04:01:22;;;;;;;0.25;0.25;;;9.10;99.90;;;;;;5025874;28;20121;-67
2022/04/30 04:03:50;;;;;;;0.10;0.10;;;9.10;99.90;;;;;;5015520;28;20080;-68
2022/04/30 04:06:19;;;;;;;0.10;0.10;;;9.10;99.90;;;;;;5008398;28;20046;-67
2022/04/30 04:08:49;;;;;;;0.10;0.10;;;9.10;99.90;;;;;;5018887;28;20515;-67
2022/04/30 04:11:15;;;;;;;0.10;0.10;;;9.10;99.90;;;;;;5010814;28;20042;-67
2022/04/30 04:19:10;;;;;;;0.30;0.30;;;9.20;99.90;;;;;;5017655;28;20050;-67
2022/04/30 04:21:35;;;;;;;0.10;0.10;;;9.30;99.90;;;;;;5008173;28;20046;-67
2022/04/30 04:26:45;;;;;;;0.10;0.10;;;9.30;99.90;;;;;;5023869;28;20485;-67
2022/04/30 04:29:11;;;;;;;0.10;0.10;;;9.30;99.90;;;;;;5008320;28;20046;-67
2022/04/30 04:31:37;;;;;;;0.22;0.22;;;9.30;99.90;;;;;;5022594;28;20610;-67
2022/04/30 04:34:03;;;;;;;0.10;0.10;;;9.30;99.90;;;;;;5008528;28;20092;-68
2022/04/30 04:36:28;;;;;;;0.00;0.00;;;9.20;99.90;;;;;;5010739;28;20073;-67
2022/04/30 04:38:54;;;;;;;0.10;0.10;;;9.20;99.90;;;;;;5026994;28;20495;-67
2022/04/30 04:41:19;;;;;;;0.10;0.10;;;9.20;99.90;;;;;;5012730;28;20080;-67
2022/04/30 04:43:45;;;;;;;0.10;0.10;;;9.20;99.90;;;;;;5019170;28;20407;-67
2022/04/30 04:46:11;;;;;;;0.10;0.10;;;9.20;99.90;;;;;;5028149;28;20038;-67
2022/04/30 04:48:36;;;;;;;0.10;0.10;;;9.20;99.90;;;;;;5019347;28;20786;-67
2022/04/30 04:51:03;;;;;;;0.10;0.10;;;9.20;99.90;;;;;;5008408;28;20676;-68
2022/04/30 04:53:29;;;;;;;0.10;0.10;;;9.20;99.90;;;;;;5009930;28;20064;-67
2022/04/30 04:55:55;;;;;;;0.10;0.10;;;9.30;99.90;;;;;;5017519;28;20053;-67
2022/04/30 04:58:20;;;;;;;0.32;0.32;;;9.30;99.90;;;;;;5016787;28;20068;-67
2022/04/30 05:00:46;;;;;;;0.03;0.03;;;9.30;99.90;;;;;;5011426;28;20126;-67
2022/04/30 05:03:12;;;;;;;0.10;0.10;;;9.30;99.90;;;;;;5010711;28;20046;-67
2022/04/30 05:05:38;;;;;;;0.10;0.10;;;9.30;99.90;;;;;;5010786;28;20052;-68
2022/04/30 05:08:04;;;;;;;0.20;0.20;;;9.30;99.90;;;;;;5015631;28;20034;-67
2022/04/30 05:10:30;;;;;;;0.40;0.40;;;9.30;99.90;;;;;;5010735;28;20049;-67
2022/04/30 05:12:56;;;;;;;0.10;0.10;;;9.30;99.90;;;;;;5018803;28;20172;-67
2022/04/30 05:15:22;;;;;;;0.10;0.10;;;9.40;99.90;;;;;;5027727;28;20046;-68
2022/04/30 05:17:47;;;;;;;0.70;0.60;;;9.30;99.90;;;;;;5027848;28;20045;-67
2022/04/30 05:20:13;;;;;;;0.10;0.10;;;9.30;99.90;;;;;;5031336;28;20064;-68
2022/04/30 05:22:38;;;;;;;0.20;0.20;;;9.30;99.90;;;;;;5028148;28;20136;-67
2022/04/30 05:25:04;;;;;;;0.05;0.05;;;9.30;99.90;;;;;;5014647;28;20053;-67
2022/04/30 05:27:30;;;;;;;0.00;0.00;;;9.30;99.90;;;;;;5011309;28;20482;-67
2022/04/30 05:29:55;;;;;;;0.10;0.10;;;9.20;99.90;;;;;;5030316;28;20042;-67
2022/04/30 05:32:21;;;;;;;0.10;0.10;;;9.20;99.90;;;;;;5030106;28;20046;-67
2022/04/30 05:34:46;;;;;;;0.22;0.22;;;9.20;99.90;;;;;;5030812;28;20045;-67
2022/04/30 05:37:12;;;;;;;0.20;0.20;;;9.20;99.90;;;;;;5013186;28;20071;-67
2022/04/30 05:39:38;;;;;;;0.10;0.10;;;9.20;99.90;;;;;;5010688;28;20074;-67
2022/04/30 05:42:04;;;;;;;0.10;0.10;;;9.20;99.90;;;;;;5026353;28;20132;-67
2022/04/30 05:44:29;;;;;;;0.35;0.35;;;9.20;99.90;;;;;;5012361;28;20042;-67
2022/04/30 05:46:55;;;;;;;0.30;0.30;;;9.20;99.90;;;;;;5028283;28;20037;-67
2022/04/30 05:49:21;;;;;;;0.47;0.43;;;9.20;99.90;;;;;;5022888;28;20049;-67
2022/04/30 05:51:46;;;;;;;0.10;0.10;;;9.30;99.90;;;;;;5014818;28;20046;-67
2022/04/30 05:54:12;;;;;;;0.45;0.45;;;9.30;99.90;;;;;;5017112;28;20054;-67
2022/04/30 05:56:37;;;;;;;0.45;0.45;;;9.40;99.90;;;;;;5010540;28;20413;-67
2022/04/30 05:59:03;;;;;;;0.10;0.10;;;9.50;99.90;;;;;;5020070;28;20499;-67
2022/04/30 06:01:29;;;;;;;0.10;0.10;;;9.60;99.90;;;;;;5021838;28;20184;-67
2022/04/30 06:03:55;;;;;;;0.00;0.00;;;9.70;99.90;;;;;;5015444;28;20397;-67
2022/04/30 06:06:21;;;;;;;0.13;0.13;;;9.80;99.90;;;;;;5026428;28;20117;-67
2022/04/30 06:08:47;;;;;;;0.10;0.10;;;9.80;99.90;;;;;;5030370;28;20124;-68
2022/04/30 06:11:13;;;;;;;0.20;0.20;;;9.90;99.90;;;;;;5031068;28;20045;-67
2022/04/30 06:13:38;;;;;;;0.10;0.10;;;9.90;99.90;;;;;;5019187;28;20045;-68
2022/04/30 06:16:04;;;;;;;0.20;0.20;;;10.00;99.90;;;;;;5026947;28;20049;-67
2022/04/30 06:18:30;;;;;;;0.10;0.10;;;10.00;99.90;;;;;;5029229;28;20072;-68
2022/04/30 06:20:55;;;;;;;0.03;0.03;;;10.00;99.90;;;;;;5029883;28;20049;-67
2022/04/30 06:23:21;;;;;;;0.10;0.10;;;9.90;99.90;;;;;;5019210;28;20029;-68
2022/04/30 06:25:47;;;;;;;0.20;0.20;;;9.90;99.90;;;;;;5020114;28;20069;-67
2022/04/30 06:28:14;;;;;;;0.10;0.10;;;10.00;99.90;;;;;;5028938;28;20046;-67
2022/04/30 06:30:40;;;;;;;0.10;0.10;;;10.00;99.90;;;;;;5028903;28;20045;-67
2022/04/30 06:33:06;;;;;;;0.10;0.10;;;9.90;99.90;;;;;;5016352;28;20080;-67
2022/04/30 06:35:32;;;;;;;0.10;0.10;;;10.00;99.90;;;;;;5009181;28;20046;-67
2022/04/30 06:37:58;;;;;;;0.00;0.00;;;10.00;99.90;;;;;;5020766;28;20455;-67
2022/04/30 06:40:24;;;;;;;0.10;0.10;;;10.00;99.90;;;;;;5017461;28;20049;-67
2022/04/30 06:42:49;;;;;;;0.25;0.25;;;10.00;99.90;;;;;;5011048;28;20045;-67
2022/04/30 06:45:17;;;;;;;0.47;0.47;;;10.00;99.90;;;;;;5025604;28;20071;-68
2022/04/30 06:47:42;;;;;;;0.10;0.10;;;10.10;99.90;;;;;;5012656;28;20139;-68
2022/04/30 06:50:09;;;;;;;0.10;0.10;;;10.00;99.90;;;;;;5017214;28;20500;-67
2022/04/30 06:52:34;;;;;;;0.10;0.10;;;10.10;99.90;;;;;;5027623;28;20075;-67
2022/04/30 06:57:47;;;;;;;0.00;0.00;;;10.10;99.90;;;;;;5015117;28;20049;-67
2022/04/30 07:02:57;;;;;;;0.10;0.10;;;10.10;99.90;;;;;;5023755;28;20780;-67
2022/04/30 07:05:23;;;;;;;0.10;0.10;;;10.20;99.90;;;;;;5023625;28;20132;-68
2022/04/30 07:07:49;;;;;;;0.15;0.15;;;10.20;99.90;;;;;;5026350;28;20052;-67
2022/04/30 07:10:14;;;;;;;0.10;0.10;;;10.10;99.90;;;;;;5018963;28;20128;-67
2022/04/30 07:12:40;;;;;;;0.30;0.30;;;10.10;99.90;;;;;;5026083;28;20030;-68
2022/04/30 07:15:06;;;;;;;0.00;0.00;;;10.10;99.90;;;;;;5019374;28;20461;-67
2022/04/30 07:17:32;;;;;;;0.10;0.10;;;10.10;99.90;;;;;;5024615;28;20037;-67
2022/04/30 07:19:57;;;;;;;0.88;0.77;;;10.20;99.90;;;;;;5029042;28;20095;-67
2022/04/30 07:22:23;;;;;;;0.10;0.10;;;10.10;99.90;;;;;;5022824;28;20060;-67
2022/04/30 07:24:48;;;;;;;0.63;0.63;;;10.10;99.90;;;;;;5019857;28;20045;-68
2022/04/30 07:27:14;;;;;;;0.30;0.30;;;10.10;99.90;;;;;;5028755;28;20045;-69
2022/04/30 07:29:39;;;;;;;0.10;0.10;;;10.10;99.90;;;;;;5024609;28;20033;-69
2022/04/30 07:32:08;;;;;;;0.13;0.13;;;10.10;99.90;;;;;;5010648;28;20152;-68
2022/04/30 07:34:35;;;;;;;0.10;0.10;;;10.20;99.90;;;;;;5008833;28;20057;-68
2022/04/30 07:37:00;;;;;;;0.10;0.10;;;10.20;99.90;;;;;;5008649;28;20042;-68
2022/04/30 07:39:26;;;;;;;0.10;0.10;;;10.20;99.90;;;;;;5007432;28;20092;-68
2022/04/30 07:41:55;;;;;;;0.10;0.10;;;10.30;99.90;;;;;;5009115;28;20579;-68
2022/04/30 07:44:22;;;;;;;1.00;0.65;;;10.40;99.90;;;;;;5010927;28;20049;-68
2022/04/30 07:46:48;;;;;;;0.22;0.22;;;10.50;99.90;;;;;;5018996;28;20076;-68
2022/04/30 07:49:13;;;;;;;0.43;0.43;;;10.60;99.90;;;;;;5026701;28;20420;-67
2022/04/30 07:51:53;;;;;;;0.10;0.10;;;10.60;99.90;;;;;;5007226;28;20812;-67
2022/04/30 07:54:20;;;;;;;0.10;0.10;;;10.70;99.90;;;;;;5015223;28;20085;-68
2022/04/30 07:56:46;;;;;;;0.30;0.30;;;10.80;99.90;;;;;;5008536;28;20061;-67
2022/04/30 07:59:12;;;;;;;1.65;1.20;;;10.90;99.90;;;;;;5015550;28;20049;-67
2022/04/30 08:01:38;;;;;;;0.10;0.10;;;11.00;99.90;;;;;;5012056;28;20050;-67
2022/04/30 08:04:03;;;;;;;0.10;0.10;;;11.10;99.90;;;;;;5008057;28;20053;-68
2022/04/30 08:06:29;;;;;;;0.10;0.10;;;11.10;99.90;;;;;;5020709;28;20049;-68
2022/04/30 08:08:54;;;;;;;0.00;0.00;;;11.10;99.90;;;;;;5009538;28;20046;-68
2022/04/30 08:11:20;;;;;;;0.10;0.10;;;11.10;99.90;;;;;;5008623;28;20450;-68
2022/04/30 08:13:45;;;;;;;0.17;0.17;;;11.20;99.90;;;;;;5018356;28;20123;-68
2022/04/30 08:16:11;;;;;;;0.00;0.00;;;11.30;99.90;;;;;;5015452;28;20328;-68
2022/04/30 08:18:38;;;;;;;0.10;0.10;;;11.40;99.90;;;;;;5012032;28;20034;-68
2022/04/30 08:21:05;;;;;;;0.20;0.20;;;11.50;99.90;;;;;;5007383;28;20057;-68
2022/04/30 08:23:33;;;;;;;0.20;0.20;;;11.50;99.90;;;;;;5014148;28;20038;-68
2022/04/30 08:25:58;;;;;;;0.10;0.10;;;11.40;99.90;;;;;;5027849;28;20366;-68
2022/04/30 08:28:24;;;;;;;0.10;0.10;;;11.50;99.90;;;;;;5025023;28;20045;-68
2022/04/30 08:30:49;;;;;;;0.10;0.10;;;11.40;99.90;;;;;;5013229;28;20104;-68
2022/04/30 08:33:15;;;;;;;0.10;0.10;;;11.30;99.90;;;;;;5015965;28;20084;-68
2022/04/30 08:35:41;;;;;;;0.05;0.05;;;11.30;99.90;;;;;;5019473;28;20053;-67
2022/04/30 08:38:06;;;;;;;0.73;0.73;;;11.10;99.90;;;;;;5012603;28;20436;-68
2022/04/30 08:40:33;;;;;;;0.17;0.17;;;11.00;99.90;;;;;;5010712;28;20425;-67
2022/04/30 08:43:09;;;;;;;0.10;0.10;;;11.00;99.90;;;;;;5016381;28;20386;-68
2022/04/30 08:45:39;;;;;;;0.10;0.10;;;11.00;99.90;;;;;;5025550;28;20455;-67
2022/04/30 08:48:09;;;;;;;0.43;0.43;;;11.00;99.90;;;;;;5012111;28;20392;-68
2022/04/30 08:50:36;;;;;;;0.00;0.00;;;11.00;99.90;;;;;;5017916;28;20054;-68
2022/04/30 08:53:02;;;;;;;0.10;0.10;;;10.90;99.90;;;;;;5030370;28;20517;-68
2022/04/30 08:55:27;;;;;;;0.38;0.28;;;10.80;99.90;;;;;;5028404;28;20053;-68
2022/04/30 08:57:53;;;;;;;0.10;0.10;;;10.70;99.90;;;;;;5030078;28;20045;-68
2022/04/30 09:00:19;;;;;;;0.10;0.10;;;10.80;99.90;;;;;;5013452;28;20049;-68
2022/04/30 09:02:49;;;;;;;1.65;0.60;;;10.80;99.90;;;;;;5011670;28;20092;-68
2022/04/30 09:05:15;;;;;;;0.05;0.05;;;10.80;99.90;;;;;;5018339;28;20045;-68
2022/04/30 09:07:41;;;;;;;0.75;0.75;;;10.80;99.90;;;;;;5022929;28;20431;-69
2022/04/30 09:10:07;;;;;;;0.10;0.10;;;10.80;99.90;;;;;;5018194;28;20072;-69
2022/04/30 09:12:33;;;;;;;0.30;0.30;;;10.80;99.90;;;;;;5029302;28;20094;-69
2022/04/30 09:14:59;;;;;;;0.10;0.10;;;10.70;99.90;;;;;;5028193;28;20053;-69
2022/04/30 09:17:27;;;;;;;0.20;0.20;;;10.70;99.90;;;;;;5017899;28;20044;-69
2022/04/30 09:19:59;;;;;;;0.20;0.20;;;10.80;99.90;;;;;;5030880;28;20468;-69
2022/04/30 09:22:33;;;;;;;0.10;0.10;;;10.70;99.90;;;;;;5025940;28;20039;-69
2022/04/30 09:25:01;;;;;;;0.00;0.00;;;10.80;99.90;;;;;;5023622;28;20056;-69
2022/04/30 09:27:26;;;;;;;0.10;0.10;;;10.80;99.90;;;;;;5015645;28;20050;-69
2022/04/30 09:29:52;;;;;;;0.30;0.30;;;10.80;99.90;;;;;;5010753;28;20128;-69
2022/04/30 09:32:24;;;;;;;2.38;1.38;;;10.70;99.90;;;;;;5022390;28;20030;-69
2022/04/30 09:37:42;;;;;;;0.20;0.20;;;10.80;99.90;;;;;;5028162;28;20401;-69
2022/04/30 09:40:13;;;;;;;1.10;0.90;;;10.70;99.90;;;;;;5022838;28;20578;-69
2022/04/30 09:42:43;;;;;;;1.88;0.90;;;10.70;99.90;;;;;;5010841;28;20041;-69
2022/04/30 09:45:21;;;;;;;0.95;0.95;;;10.60;99.90;;;;;;5014208;28;20042;-69
2022/04/30 09:47:47;;;;;;;0.38;0.38;;;10.60;99.90;;;;;;5014116;28;20054;-69
2022/04/30 09:55:44;;;;;;;0.10;0.10;;;10.60;99.90;;;;;;5027714;28;20073;-69
2022/04/30 09:58:15;;;;;;;0.10;0.10;;;10.60;99.90;;;;;;5029471;28;20042;-69
2022/04/30 10:00:41;;;;;;;0.10;0.10;;;10.60;99.90;;;;;;5018857;28;20073;-69
2022/04/30 10:03:08;;;;;;;0.10;0.10;;;10.60;99.90;;;;;;5011292;28;20104;-68
2022/04/30 10:05:36;;;;;;;0.10;0.10;;;10.70;99.90;;;;;;5028297;28;20085;-69
2022/04/30 10:08:02;;;;;;;0.60;0.60;;;10.70;99.90;;;;;;5024595;28;20049;-68
2022/04/30 10:10:42;;;;;;;0.10;0.10;;;10.80;99.90;;;;;;5011171;28;20456;-69
2022/04/30 10:13:31;;;;;;;0.45;0.45;;;10.80;99.90;;;;;;5008628;28;20397;-69
2022/04/30 10:15:59;;;;;;;0.10;0.10;;;10.80;99.90;;;;;;5013977;28;20053;-69
2022/04/30 10:18:34;;;;;;;0.00;0.00;;;10.90;99.90;;;;;;5022179;28;20408;-68
2022/04/30 10:21:02;;;;;;;0.75;0.35;;;11.00;99.90;;;;;;5013610;28;20057;-69
2022/04/30 10:23:28;;;;;;;1.02;1.02;;;11.10;99.90;;;;;;5014071;28;20037;-68
2022/04/30 10:25:54;;;;;;;1.95;0.98;;;11.10;99.90;;;;;;5024310;28;20055;-68
2022/04/30 10:28:21;;;;;;;0.35;0.35;;;11.20;99.90;;;;;;5011060;28;20034;-68
2022/04/30 10:31:04;;;;;;;1.40;1.30;;;11.30;99.90;;;;;;5012560;28;20125;-68
2022/04/30 10:33:30;;;;;;;0.40;0.40;;;11.40;99.90;;;;;;5015466;28;20053;-68
2022/04/30 10:36:10;;;;;;;0.10;0.10;;;11.50;99.90;;;;;;5014619;28;20089;-68
2022/04/30 10:38:36;;;;;;;0.10;0.10;;;11.60;99.90;;;;;;5028569;28;20053;-68
2022/04/30 10:41:04;;;;;;;0.10;0.10;;;11.80;99.90;;;;;;5015635;28;20489;-69
2022/04/30 10:43:35;;;;;;;0.10;0.10;;;11.80;99.90;;;;;;5008779;28;20092;-69
2022/04/30 10:46:17;;;;;;;1.45;1.05;;;11.90;99.90;;;;;;5009026;28;20037;-68
2022/04/30 10:48:42;;;;;;;0.10;0.10;;;12.00;99.90;;;;;;5021565;28;20556;-68
2022/04/30 10:51:14;;;;;;;0.10;0.10;;;11.90;99.90;;;;;;5012833;28;20049;-69
2022/04/30 10:53:41;;;;;;;0.10;0.10;;;11.90;99.90;;;;;;5008746;28;20061;-69
2022/04/30 10:56:07;;;;;;;0.10;0.10;;;11.90;99.90;;;;;;5016914;28;20361;-69
2022/04/30 10:58:35;;;;;;;0.10;0.10;;;12.00;99.90;;;;;;5027399;28;20041;-69
2022/04/30 11:01:17;;;;;;;0.22;0.22;;;12.00;99.90;;;;;;5021892;28;20053;-69
2022/04/30 11:03:44;;;;;;;0.90;0.63;;;11.90;99.90;;;;;;5009442;28;20046;-69
2022/04/30 11:06:11;;;;;;;2.63;1.10;;;12.00;99.90;;;;;;5022103;28;20068;-69
2022/04/30 11:08:37;;;;;;;0.10;0.10;;;12.10;99.90;;;;;;5028364;28;20049;-69
2022/04/30 11:11:03;;;;;;;0.05;0.05;;;11.90;99.90;;;;;;5024637;28;20045;-69
2022/04/30 11:13:28;;;;;;;0.25;0.25;;;12.00;99.90;;;;;;5021984;28;20038;-69
2022/04/30 11:15:58;;;;;;;0.10;0.10;;;11.90;99.90;;;;;;5008180;28;20042;-69
2022/04/30 11:18:24;;;;;;;0.20;0.20;;;11.90;99.90;;;;;;5008001;28;20509;-69
2022/04/30 11:20:58;;;;;;;0.10;0.10;;;11.80;99.90;;;;;;5014874;28;20072;-69
2022/04/30 11:23:24;;;;;;;1.45;1.08;;;12.00;99.90;;;;;;5028147;28;20140;-69
2022/04/30 11:25:49;;;;;;;0.10;0.10;;;11.90;99.90;;;;;;5015820;28;20123;-69
2022/04/30 11:28:15;;;;;;;0.13;0.13;;;11.90;99.90;;;;;;5015359;28;20091;-69
2022/04/30 11:30:43;;;;;;;0.20;0.20;;;11.90;99.90;;;;;;5019441;28;20041;-68
2022/04/30 11:33:10;;;;;;;0.10;0.10;;;11.90;99.90;;;;;;5012773;28;20053;-68
2022/04/30 11:35:36;;;;;;;0.10;0.10;;;11.90;99.90;;;;;;5018757;28;20153;-66
2022/04/30 11:38:02;;;;;;;0.00;0.00;;;11.90;99.90;;;;;;5017265;28;20508;-67
2022/04/30 11:40:28;;;;;;;0.10;0.10;;;11.80;99.90;;;;;;5026760;28;20488;-67
2022/04/30 11:42:59;;;;;;;0.10;0.10;;;11.70;99.90;;;;;;5027008;28;20064;-66
2022/04/30 11:45:25;;;;;;;13.25;0.95;;;11.60;99.90;;;;;;5022020;28;20119;-68
2022/04/30 11:47:51;;;;;;;0.40;0.40;;;11.50;99.90;;;;;;5015604;28;20034;-67
2022/04/30 11:50:17;;;;;;;0.32;0.32;;;11.40;99.90;;;;;;5015635;28;20051;-67
2022/04/30 11:52:43;;;;;;;0.35;0.17;;;11.40;99.90;;;;;;5024270;28;20080;-67
2022/04/30 11:55:09;;;;;;;0.30;0.30;;;11.40;99.90;;;;;;5027526;28;20456;-68
2022/04/30 11:57:40;;;;;;;0.20;0.20;;;11.40;99.90;;;;;;5019651;28;20366;-67
2022/04/30 12:00:07;;;;;;;0.10;0.10;;;11.40;99.90;;;;;;5021741;28;20543;-67
2022/04/30 12:02:33;;;;;;;0.00;0.00;;;11.30;99.90;;;;;;5026820;28;20521;-68
2022/04/30 12:05:04;;;;;;;0.35;0.35;;;11.40;99.90;;;;;;5028403;28;20073;-67
2022/04/30 12:07:37;;;;;;;0.05;0.05;;;11.20;99.90;;;;;;5010417;28;20057;-68
2022/04/30 12:10:13;;;;;;;0.10;0.10;;;11.20;99.90;;;;;;5015385;28;20049;-68
2022/04/30 12:12:39;;;;;;;0.20;0.20;;;11.30;99.90;;;;;;5017565;28;20046;-67
2022/04/30 12:15:17;;;;;;;0.10;0.10;;;11.30;99.90;;;;;;5016537;28;20136;-67
2022/04/30 12:17:42;;;;;;;0.10;0.10;;;11.30;99.90;;;;;;5009468;28;20489;-67
2022/04/30 12:26:05;;;;;;;1.65;0.35;;;11.40;99.90;;;;;;5021425;28;20544;-67
2022/04/30 12:28:45;;;;;;;0.10;0.10;;;11.50;99.90;;;;;;5017067;28;20404;-67
2022/04/30 12:31:10;;;;;;;0.40;0.40;;;11.50;99.90;;;;;;5026998;28;20152;-67
2022/04/30 12:33:47;;;;;;;0.08;0.08;;;11.60;99.90;;;;;;5014086;28;20125;-67
2022/04/30 12:36:13;;;;;;;0.10;0.10;;;11.50;99.90;;;;;;5012321;28;20160;-67
2022/04/30 12:38:39;;;;;;;1.65;0.40;;;11.70;99.90;;;;;;5019226;28;20045;-67
2022/04/30 12:41:07;;;;;;;0.10;0.10;;;11.70;99.90;;;;;;5014330;28;20091;-67
2022/04/30 12:43:36;;;;;;;0.10;0.10;;;11.80;99.90;;;;;;5019657;28;20034;-67
2022/04/30 12:46:03;;;;;;;0.13;0.13;;;11.90;99.90;;;;;;5008142;28;20038;-67
2022/04/30 12:48:32;;;;;;;0.10;0.10;;;11.80;99.90;;;;;;5027338;28;20045;-67
2022/04/30 12:50:58;;;;;;;0.52;0.40;;;11.90;99.90;;;;;;5022581;28;20042;-67
2022/04/30 12:53:23;;;;;;;0.60;0.52;;;12.00;99.90;;;;;;5018858;28;20066;-67
2022/04/30 12:55:52;;;;;;;0.22;0.22;;;12.20;99.90;;;;;;5009765;28;20038;-67
2022/04/30 12:58:18;;;;;;;0.10;0.10;;;12.40;99.90;;;;;;5021437;28;20042;-67
2022/04/30 13:00:45;;;;;;;0.25;0.25;;;12.60;99.90;;;;;;5012309;28;20084;-67
2022/04/30 13:03:11;;;;;;;0.10;0.10;;;12.50;99.90;;;;;;5025907;28;20045;-68
2022/04/30 13:05:37;;;;;;;0.10;0.10;;;12.60;99.90;;;;;;5021765;28;20038;-67
2022/04/30 13:08:03;;;;;;;0.30;0.30;;;12.70;99.90;;;;;;5007569;28;20131;-68
2022/04/30 13:13:31;;;;;;;0.10;0.10;;;12.50;99.90;;;;;;5007947;28;20049;-67
2022/04/30 13:15:57;;;;;;;0.20;0.20;;;12.40;99.90;;;;;;5010982;28;20045;-67
2022/04/30 13:18:23;;;;;;;0.10;0.10;;;12.30;99.90;;;;;;5018326;28;20041;-67
2022/04/30 13:20:48;;;;;;;0.15;0.15;;;12.20;99.90;;;;;;5029217;28;20179;-67
2022/04/30 13:23:14;;;;;;;0.68;0.68;;;12.20;99.90;;;;;;5018399;28;20103;-67
2022/04/30 13:25:40;;;;;;;0.10;0.10;;;12.20;99.90;;;;;;5024856;28;20045;-67
2022/04/30 13:28:06;;;;;;;0.57;0.28;;;12.20;99.90;;;;;;5011409;28;20042;-67
2022/04/30 13:30:32;;;;;;;0.52;0.40;;;12.20;99.90;;;;;;5012024;28;20233;-67
2022/04/30 13:32:58;;;;;;;0.32;0.32;;;12.20;99.90;;;;;;5021334;28;20058;-67
2022/04/30 13:35:24;;;;;;;0.00;0.00;;;12.30;99.90;;;;;;5012489;28;20060;-67
2022/04/30 13:37:51;;;;;;;0.43;0.43;;;12.30;99.90;;;;;;5030488;28;20042;-67